Racecast

Swags Louisville Cross Country Classic

EP Tom Sawyer State Park · 5000m · Girls · Invite · 2025-10-04 · KY

Course difficulty: -0.042

Race-day weather: 74°F · wind 3 mph · humidity 68%

View full meet →

Team scores

Place Team Points 12345 67
1 Father Tolton Regional Catholic (MO) 94 8 10 12 17 46 50 87
2 Liberty (Wentzville) (MO) 105 1 15 16 33 38 70 83
3 McDowell (PA) 114 7 11 13 28 52 81 82
4 Bridgeport (WV) 114 2 9 24 27 49 95 114
5 Lebanon (OH) 155 21 22 34 36 37 54
6 Science Hill (TN) 181 26 29 32 41 47 89
7 South Warren (KY) 182 20 30 39 44 45 102
8 Campbell County (KY) 248 4 14 57 75 88 104
9 Harlan County (KY) 250 19 40 60 61 62 97 120
10 St Albans (WV) 255 5 43 55 67 76 105 127
11 Eastern (KY) 263 23 48 56 59 68 85
12 St. Marys (WV) 344 6 53 72 92 106 110
13 CKY Homeschool (KY) 367 35 42 74 100 101 130
14 Covenant (VA) 378
15 South Oldham (KY) 387 18 51 84 107 111 113
16 Harrison County (KY) 404 25 65 69 93 135
17 Adair County (KY) 431 3 77 91 108 132 139 140
18 Warren East (KY) 435 58 71 78 90 119 126 137
19 Winfield (WV) 458 66 80 94 98 99 103 115
20 Webster County (KY) 478 31 73 96 125 133 134
21 Bethlehem (KY) 514 63 64 118 122 124 131
22 Highlands Latin (KY) 552 79 86 117 121 123 129
23 Shelby County (KY) 630 109 112 116 128 136 138

As scored by the meet.

Results

Rating scale ?
Place Athlete Grade School Time Rating Points
1 Bella Navarro-Sanchez 11 Liberty (Wentzville) (MO) 1 18:34.7 134.1 1
2 Aria Selario 9 Bridgeport (WV) 1 18:47.8 132.5 2
3 Arabella Boggs 12 Charleston Catholic (WV) 1 18:53.8 131.8
4 Brianna Hillock 12 Adair County (KY) 1 19:01.1 131.0 3
5 Lila Dunlevy 10 Campbell County (KY) 1 19:15.6 129.3 4
6 Abigail Torman 12 St Albans (MD) 1 19:18 129.1 5
7 Anna Bennett 11 St. Marys (WV) 1 19:22.9 SR 128.5 6
8 Lauren Dever 11 McDowell (PA) 1 19:38.5 126.8 7
9 Ellie Lucas 9 Father Tolton Regional Catholic (MO) 1 19:39 126.8 8
10 Emma Niedbalski 12 Jackson (WA) 1 19:41.8 126.5
11 Mikaela DeMoss 12 Bridgeport (WV) 2 19:43.6 126.3 9
12 Angelina Cottone 11 Father Tolton Regional Catholic (MO) 2 19:49.2 125.7 10
13 Isabella Hebner 10 McDowell (PA) 2 19:52.4 125.3 11
14 Carmen Guerrero 12 Fern Creek (KY) 1 19:55.1 125.0
15 Avery Ries 9 Father Tolton Regional Catholic (MO) 3 20:00.1 124.5 12
16 Allie Dever 9 McDowell (PA) 3 20:06.2 123.9 13
17 Katherine McKee 11 Campbell County (KY) 2 20:06.8 123.8 14
18 Kailey Lawrence 12 Liberty (Wentzville) (MO) 2 20:11.1 123.4 15
19 Macailyn Townsend 9 Liberty (Wentzville) (MO) 3 20:12.1 123.3 16
20 Sarah Kesterson 11 Father Tolton Regional Catholic (MO) 4 20:18.1 122.7 17
21 Audrey Richardson 12 Covenant (VA) 1 20:22.8 122.2 18
22 Seren Hanrahan 10 South Oldham (KY) 1 20:23.3 122.2 19
23 Margaret Dulaney 11 Louisville Collegiate (KY) 1 20:23.4 122.2
24 Gracie Roberts 10 Harlan County (KY) 1 20:27 121.8 20
25 Bailey James 11 South Warren (KY) 1 20:27 121.8 21
26 Ava Westfall 11 Lebanon (OR) 1 20:27.1 PR 121.8 22
27 Izzy Ansberry 9 Lebanon (OR) 2 20:27.4 PR 121.8 23
28 Gemma Harkins 12 Eastern (KY) 1 20:31.9 121.3 24
29 Isla Tobrey 9 Bridgeport (WV) 3 20:37 PR 120.8 25
30 Madison Hunt 12 Harrison County (KY) 1 20:37.2 120.8 26
31 Antu Bahulekar 11 Science Hill (TN) 1 20:38.3 PR 120.7 27
32 Bethsayed Dankiewicz 10 Bridgeport (WV) 4 20:39.1 PR 120.6 28
33 Addison Klinge 10 McDowell (PA) 4 20:41.9 SR 120.3 29
34 Natalia Hayes 12 Science Hill (TN) 2 20:42.8 SR 120.2 30
35 Katelyn Best 11 South Warren (KY) 2 20:42.8 120.2 31
36 Paisley Stone 8 Webster County (KY) 1 20:46.4 137.4 32
37 Mahri Layne 11 Science Hill (TN) 3 20:47.3 PR 119.8 33
38 Kailynn Burton 10 Liberty (Wentzville) (MO) 4 20:47.9 119.8 34
39 Lillian (Lily) Ludwick 12 Lebanon (OR) 3 20:48 119.8 35
40 Sarah Keller 7 CKY Homeschool (KY) 1 20:59.1 PR 136.1 36
41 Grace Tully 9 Lebanon (OR) 4 20:59.7 PR 118.6 37
42 Isabella Swift 11 Lebanon (OR) 5 21:00.5 PR 118.6 38
43 Ella Carroll 11 Simon Kenton (KY) 1 21:01 118.5
44 Karsyn Kreidenweis 9 Simon Kenton (KY) 2 21:01.8 118.4
45 Ashley Sauceda 11 Liberty (Wentzville) (MO) 5 21:03.6 118.3 39
46 Jasmine Abacan 11 South Warren (KY) 3 21:04.4 118.2 40
47 Lauren Lewis 10 Harlan County (KY) 2 21:07.6 SR 117.9 41
48 Meghan Morse 12 Science Hill (TN) 4 21:10 SR 117.7 42
49 Elizabeth Field 12 CKY Homeschool (KY) 2 21:10.8 117.6 43
50 Siena Braley 9 St Albans (MD) 2 21:12.7 PR 117.4 44
51 Caylee Fischer 8 Henry County (KY) 1 21:15.3 134.3
52 Molly Robertson 11 South Warren (KY) 4 21:18.5 116.9 45
53 Cesca Poole 12 South Warren (KY) 5 21:20.3 PR 116.7 46
54 Avery Hazelrigg 12 Father Tolton Regional Catholic (MO) 5 21:22.9 116.5 47
55 Ava Carter 9 Science Hill (TN) 5 21:23.8 PR 116.4 48
56 Alexis Arroyo 11 Eastern (KY) 2 21:25.1 116.3 49
57 Ashley McBrayer 12 Bridgeport (WV) 5 21:25.4 116.3 50
58 Avery Hoernschemeyer 10 Father Tolton Regional Catholic (MO) 6 21:27.1 PR 116.1 51
59 McKenzie Drawbaugh 10 South Oldham (KY) 2 21:29.1 115.9 52
60 Ava Clement 9 Science Hill (TN) 6 21:30 PR 115.8 53
61 Delaney McGrath 9 McDowell (PA) 5 21:30.4 115.8 54
62 Savana Burd 11 St. Marys (WV) 2 21:33.2 115.6 55
63 Addison Carraher 12 Lebanon (OR) 6 21:36.1 SR 115.3 56
64 Ava Templeton 12 St Albans (MD) 3 21:41 114.9 57
65 Emerson Lilly 12 Eastern (KY) 3 21:43.9 114.6 58
66 Isabella Evers 11 Campbell County (KY) 3 21:47.2 PR 114.3 59
67 Kendall Meeks 11 Warren East (KY) 1 21:54.4 PR 113.7 60
68 Carmela McWaters 11 Eastern (KY) 4 21:58.6 113.3 61
69 Kiera Roberts 10 Harlan County (KY) 3 21:59.1 SR 113.3 62
70 Preslee Hensley 12 Harlan County (KY) 4 22:02.1 SR 113.0 63
71 Andrea Napier 7 Harlan County (KY) 5 22:12.9 PR 128.5 64
72 Anne Manion 8 Bethlehem (KY) 1 22:14.6 PR 128.4 65
73 Irene Manion 8 Bethlehem (KY) 2 22:18 PR 128.0 66
74 Arwen French 11 Harrison County (KY) 2 22:21.3 111.4 67
75 Kayla Taylor 12 Winfield (WV) 1 22:21.8 SR 111.4 68
76 Evelynn Brennan 10 St Albans (MD) 4 22:22.4 PR 111.3 69
77 Ella Richardson 10 Covenant (VA) 2 22:23.1 PR 111.3 70
78 Alayna Powers 9 Eastern (KY) 5 22:31.8 110.5 71
79 Sophia Simpson 11 Harrison County (KY) 3 22:33.1 110.5 72
80 Ella Judge 10 Liberty (Wentzville) (MO) 6 22:34.7 110.3 73
81 Emma Wilson 9 Warren East (KY) 2 22:37.1 PR 110.1 74
82 Maddie Smith 11 St. Marys (WV) 3 22:41.7 109.8 75
83 Alli Bell 8 Webster County (KY) 2 22:45.8 125.4 76
84 Evie Hamilton 9 CKY Homeschool (KY) 3 22:50.4 109.0 77
85 Evelynne Bucklad 9 Covenant (VA) 3 22:51.5 PR 109.0 78
86 Mia Petty 12 Campbell County (KY) 4 22:52 SR 108.9 79
87 Mia Cloer 10 St Albans (MD) 5 23:00.4 PR 108.3 80
88 Arianna Meyer 8 Adair County (KY) 2 23:09.2 123.3 81
89 Chloe Bradshaw 9 Warren East (KY) 3 23:11.3 PR 107.4 82
90 Bailee King 10 Charleston Catholic (WV) 2 23:12.7 107.3
91 Alaina White 8 Highlands Latin (KY) 1 23:14.1 PR 122.9 83
92 Emily Jividen 10 Winfield (WV) 2 23:14.6 PR 107.2 84
93 Lauren Walters 9 McDowell (PA) 6 23:14.9 107.1 85
94 Hayden Palmer 12 McDowell (PA) 7 23:16.2 86
95 Lillian Schoenherr 9 Liberty (Wentzville) (MO) 7 23:19.3 106.8 87
96 Cassidy Stocker 11 South Oldham (KY) 3 23:19.9 106.8 88
97 Ainsley Keith 11 Eastern (KY) 6 23:28.5 106.1 89
98 Kinsley Cordrey 11 Christian Academy-Louisville (KY) 1 23:30.7 105.9
99 Charlotte White 9 Highlands Latin (KY) 2 23:39.9 105.2 90
100 Kayla Perrone 10 Father Tolton Regional Catholic (MO) 7 23:40.8 91
101 London Faris 9 Campbell County (KY) 5 23:47.4 PR 104.7 92
102 Evy Haywood 10 Science Hill (TN) 7 23:48.2 SR 104.6 93
103 Bella Oatley 9 Warren East (KY) 4 23:49 PR 104.6 94
104 Lily Allan 9 Covenant (VA) 4 23:51.1 PR 104.4 95
105 Kennedy Booth 11 Adair County (KY) 3 23:52.1 104.3 96
106 Brooklyn Davis 11 St. Marys (WV) 4 23:58.8 103.9 97
107 Mckayla Moore 12 Bardstown (KY) 1 24:06.7 PR 103.3
108 Loghan Whitaker 7 Harrison County (KY) 4 24:10.3 118.1 98
109 McKayla Shaw 12 Jackson (WA) 2 24:12.9 102.9
110 Calleigh Bach 12 Winfield (WV) 3 24:16 SR 102.6 99
111 Taylor Lawrey 10 Henry County (KY) 2 24:24.8 102.0
112 Adreona Moore 11 Bridgeport (WV) 6 24:25.6 SR 102.0 100
113 Emmalein Canterberry 7 Webster County (KY) 3 24:25.9 PR 116.9 101
114 Juilonna Johnson 9 Harlan County (KY) 6 24:34.9 PR 101.3 102
115 Alaina Kintner 10 Jackson (WA) 3 24:35.8 101.3
116 Isabella Thaxton 11 Winfield (WV) 4 24:38.2 101.1 103
117 Delaney Rumer 9 Winfield (WV) 5 24:38.7 PR 101.1 104
118 Aren Schutte 10 CKY Homeschool (KY) 4 24:40.1 101.0 105
119 Lillian Marsalis 9 CKY Homeschool (KY) 5 24:41.6 100.9 106
120 Sydney Robinson 7 South Warren (KY) 6 24:42 PR 115.6 107
121 Emma Frazier 9 Winfield (WV) 6 24:42.4 PR 100.8 108
122 Arianna Law 11 Campbell County (KY) 6 24:42.6 SR 100.8 109
123 Ella Lane 11 St Albans (MD) 6 24:50.6 100.3 110
124 Sidni Gerlach 11 St. Marys (WV) 5 25:01.6 99.5 111
125 Claire James 11 South Oldham (KY) 4 25:08.2 99.1 112
126 Karla Manjarrez 7 Adair County (KY) 4 25:11.5 PR 113.3 113
127 Gretchen Gayle 11 Shelby County (KY) 1 25:12.7 SR 98.8 114
128 Mariah Whitlock 10 St. Marys (WV) 6 25:15.1 SR 98.6 115
129 Avery Dailey 11 South Oldham (KY) 5 25:25.6 98.0 116
130 Sophia Magnusson-Arthur 9 Covenant (VA) 5 25:26 PR 97.9 117
131 Esther Van Zee 9 Shelby County (KY) 2 25:26.1 SR 97.9 118
132 Taylor Meredith 10 South Oldham (KY) 6 25:27.7 97.8 119
133 Erica Caldwell 12 Leslie County (KY) 1 25:36.5 SR 97.3
134 Liana Rajjoub 10 Bridgeport (WV) 7 25:40.7 97.0 120
135 Holly Bach 12 Winfield (WV) 7 25:45.3 96.7 121
136 August Townsend 12 Shelby County (KY) 3 25:47.1 SR 96.6 122
137 Kaitlin Thompson 9 Highlands Latin (KY) 3 25:50.4 96.4 123
138 Juliet Winkler 9 Simon Kenton (KY) 3 25:54.3 96.2
139 Addison Livers 10 Bethlehem (KY) 3 25:57.7 95.9 124
140 Izzy Paulson 11 Charleston Catholic (WV) 3 25:58.6 PR 95.9
141 Isabella Gabriel 10 Warren East (KY) 5 26:23 PR 94.4 125
142 Suzy Mumford 10 Harlan County (KY) 7 26:25 SR 94.3 126
143 Baylee Pike 11 Campbellsville (KY) 1 26:37.9 SR 93.5
144 Kaitlyn Bryant 10 Highlands Latin (KY) 4 26:40.5 93.4 127
145 Lucy Ferris Smith 11 Bethlehem (KY) 4 26:49.4 92.9 128
146 Stella Railey 12 Highlands Latin (KY) 5 26:57 92.4 129
147 Savannah Montgomery 12 Bethlehem (KY) 5 27:03 92.1 130
148 Briley Benson 7 Webster County (KY) 4 27:03 105.6 131
149 Haley Wilson 10 Warren East (KY) 6 27:32.2 90.5 132
150 Sydney Miller 11 St Albans (MD) 7 27:36.7 90.2 133
151 Claire Hunter 9 Charleston Catholic (WV) 4 27:36.9 PR 90.2
152 Jenna Bryant 11 Henry County (KY) 3 28:06.9 88.6
153 Emmaline Young 11 Shelby County (KY) 4 28:07.8 SR 88.5 134
154 Lucy Wilder 11 Highlands Latin (KY) 6 28:16.4 88.1 135
155 Isabelle Garcia 12 CKY Homeschool (KY) 6 28:22.9 87.8 136
156 Malorie Thiel 12 Bethlehem (KY) 6 28:36.2 87.1 137
157 Raegan Hillock 7 Adair County (KY) 5 28:42.6 99.5 138
158 Gabby Breedlove 7 Webster County (KY) 5 28:43.5 PR 99.4 139
159 Ellie Littlepage 7 Webster County (KY) 6 29:08.1 86.0 140
160 Haley Sweazy 8 Nelson County (KY) 1 29:45.3 PR 96.0
161 Addyson Kauffman 7 Harrison County (KY) 5 29:46.4 PR 95.9 141
162 Jaya Johnson 11 Shelby County (KY) 5 30:00.3 83.0 142
163 Calihan Malone 9 Warren East (KY) 7 30:08.7 PR 82.6 143
164 Coco Conte 11 Shelby County (KY) 6 30:22.3 PR 82.0 144
165 Cadence Booth 8 Adair County (KY) 6 31:17.9 91.2 145
166 Samantha Wooley 11 Campbellsville (KY) 2 31:33.7 PR 78.9
167 Khyliee Voll 11 Jeffersontown (KY) 1 31:34.4 78.9
168 Karly Boecker 10 Adair County (KY) 7 32:16.7 77.2 146
169 Raven Levy 10 Jeffersontown (KY) 2 33:34.1 74.2
Something wrong on this page? Report it →